sensor_id;sensor_type;location;lat;lon;timestamp;temperature;humidity
11748;DHT22;5931;48.832;9.072;2023-06-26T00:00:06;16.80;99.90
11748;DHT22;5931;48.832;9.072;2023-06-26T00:02:32;16.80;99.90
11748;DHT22;5931;48.832;9.072;2023-06-26T00:04:58;16.80;99.90
11748;DHT22;5931;48.832;9.072;2023-06-26T00:07:24;16.80;99.90
11748;DHT22;5931;48.832;9.072;2023-06-26T00:09:49;16.80;99.90
11748;DHT22;5931;48.832;9.072;2023-06-26T00:12:15;16.80;99.90
11748;DHT22;5931;48.832;9.072;2023-06-26T00:14:41;16.80;99.90
11748;DHT22;5931;48.832;9.072;2023-06-26T00:17:06;16.80;99.90
11748;DHT22;5931;48.832;9.072;2023-06-26T00:19:32;16.90;99.90
11748;DHT22;5931;48.832;9.072;2023-06-26T00:21:58;16.80;99.90
11748;DHT22;5931;48.832;9.072;2023-06-26T00:24:24;16.90;99.90
11748;DHT22;5931;48.832;9.072;2023-06-26T00:26:49;16.80;99.90
11748;DHT22;5931;48.832;9.072;2023-06-26T00:29:16;16.80;99.90
11748;DHT22;5931;48.832;9.072;2023-06-26T00:31:41;16.70;99.90
11748;DHT22;5931;48.832;9.072;2023-06-26T00:34:07;16.60;99.90
11748;DHT22;5931;48.832;9.072;2023-06-26T00:36:33;16.70;99.90
11748;DHT22;5931;48.832;9.072;2023-06-26T00:38:59;16.60;99.90
11748;DHT22;5931;48.832;9.072;2023-06-26T00:41:26;16.60;99.90
11748;DHT22;5931;48.832;9.072;2023-06-26T00:43:52;16.60;99.90
11748;DHT22;5931;48.832;9.072;2023-06-26T00:46:18;16.50;99.90
11748;DHT22;5931;48.832;9.072;2023-06-26T00:48:44;16.40;99.90
11748;DHT22;5931;48.832;9.072;2023-06-26T00:51:11;16.40;99.90
11748;DHT22;5931;48.832;9.072;2023-06-26T00:53:37;16.40;99.90
11748;DHT22;5931;48.832;9.072;2023-06-26T00:56:03;16.30;99.90
11748;DHT22;5931;48.832;9.072;2023-06-26T00:58:30;16.30;99.90
11748;DHT22;5931;48.832;9.072;2023-06-26T01:00:57;16.30;99.90
11748;DHT22;5931;48.832;9.072;2023-06-26T01:03:24;16.40;99.90
11748;DHT22;5931;48.832;9.072;2023-06-26T01:05:52;16.30;99.90
11748;DHT22;5931;48.832;9.072;2023-06-26T01:08:18;16.30;99.90
11748;DHT22;5931;48.832;9.072;2023-06-26T01:10:45;16.20;99.90
11748;DHT22;5931;48.832;9.072;2023-06-26T01:13:14;16.20;99.90
11748;DHT22;5931;48.832;9.072;2023-06-26T01:15:40;16.20;99.90
11748;DHT22;5931;48.832;9.072;2023-06-26T01:18:06;16.20;99.90
11748;DHT22;5931;48.832;9.072;2023-06-26T01:20:36;16.20;99.90
11748;DHT22;5931;48.832;9.072;2023-06-26T01:23:22;16.30;99.90
11748;DHT22;5931;48.832;9.072;2023-06-26T01:28:24;16.30;99.90
11748;DHT22;5931;48.832;9.072;2023-06-26T01:30:52;16.20;99.90
11748;DHT22;5931;48.832;9.072;2023-06-26T01:33:17;16.10;99.90
11748;DHT22;5931;48.832;9.072;2023-06-26T01:35:44;16.10;99.90
11748;DHT22;5931;48.832;9.072;2023-06-26T01:38:16;16.10;99.90
11748;DHT22;5931;48.832;9.072;2023-06-26T01:40:42;16.10;99.90
11748;DHT22;5931;48.832;9.072;2023-06-26T01:43:23;16.20;99.90
11748;DHT22;5931;48.832;9.072;2023-06-26T01:45:51;16.20;99.90
11748;DHT22;5931;48.832;9.072;2023-06-26T01:48:23;16.10;99.90
11748;DHT22;5931;48.832;9.072;2023-06-26T01:50:52;16.10;99.90
11748;DHT22;5931;48.832;9.072;2023-06-26T01:53:23;16.00;99.90
11748;DHT22;5931;48.832;9.072;2023-06-26T01:56:10;15.90;99.90
11748;DHT22;5931;48.832;9.072;2023-06-26T01:58:41;15.90;99.90
11748;DHT22;5931;48.832;9.072;2023-06-26T02:01:08;15.90;99.90
11748;DHT22;5931;48.832;9.072;2023-06-26T02:03:34;15.90;99.90
11748;DHT22;5931;48.832;9.072;2023-06-26T02:06:00;16.00;99.90
11748;DHT22;5931;48.832;9.072;2023-06-26T02:08:27;15.90;99.90
11748;DHT22;5931;48.832;9.072;2023-06-26T02:10:55;16.00;99.90
11748;DHT22;5931;48.832;9.072;2023-06-26T02:13:21;16.00;99.90
11748;DHT22;5931;48.832;9.072;2023-06-26T02:15:47;15.90;99.90
11748;DHT22;5931;48.832;9.072;2023-06-26T02:18:13;15.90;99.90
11748;DHT22;5931;48.832;9.072;2023-06-26T02:20:39;15.80;99.90
11748;DHT22;5931;48.832;9.072;2023-06-26T02:23:05;15.90;99.90
11748;DHT22;5931;48.832;9.072;2023-06-26T02:25:31;15.90;99.90
11748;DHT22;5931;48.832;9.072;2023-06-26T02:27:56;15.80;99.90
11748;DHT22;5931;48.832;9.072;2023-06-26T02:30:22;15.80;99.90
11748;DHT22;5931;48.832;9.072;2023-06-26T02:32:47;15.80;99.90
11748;DHT22;5931;48.832;9.072;2023-06-26T02:35:13;15.80;99.90
11748;DHT22;5931;48.832;9.072;2023-06-26T02:37:41;15.90;99.90
11748;DHT22;5931;48.832;9.072;2023-06-26T02:40:08;15.80;99.90
11748;DHT22;5931;48.832;9.072;2023-06-26T02:42:37;15.80;99.90
11748;DHT22;5931;48.832;9.072;2023-06-26T02:45:03;15.80;99.90
11748;DHT22;5931;48.832;9.072;2023-06-26T02:47:31;15.80;99.90
11748;DHT22;5931;48.832;9.072;2023-06-26T02:49:57;15.80;99.90
11748;DHT22;5931;48.832;9.072;2023-06-26T02:52:22;15.80;99.90
11748;DHT22;5931;48.832;9.072;2023-06-26T02:54:48;15.80;99.90
11748;DHT22;5931;48.832;9.072;2023-06-26T02:57:14;15.70;99.90
11748;DHT22;5931;48.832;9.072;2023-06-26T02:59:40;15.70;99.90
11748;DHT22;5931;48.832;9.072;2023-06-26T03:02:05;15.70;99.90
11748;DHT22;5931;48.832;9.072;2023-06-26T03:04:37;15.70;99.90
11748;DHT22;5931;48.832;9.072;2023-06-26T03:07:04;15.80;99.90
11748;DHT22;5931;48.832;9.072;2023-06-26T03:09:30;15.80;99.90
11748;DHT22;5931;48.832;9.072;2023-06-26T03:11:56;15.80;99.90
11748;DHT22;5931;48.832;9.072;2023-06-26T03:14:22;15.90;99.90
11748;DHT22;5931;48.832;9.072;2023-06-26T03:16:47;15.90;99.90
11748;DHT22;5931;48.832;9.072;2023-06-26T03:19:13;15.90;99.90
11748;DHT22;5931;48.832;9.072;2023-06-26T03:22:02;16.00;99.90
11748;DHT22;5931;48.832;9.072;2023-06-26T03:24:29;16.00;99.90
11748;DHT22;5931;48.832;9.072;2023-06-26T03:26:55;16.00;99.90
11748;DHT22;5931;48.832;9.072;2023-06-26T03:29:20;16.10;99.90
11748;DHT22;5931;48.832;9.072;2023-06-26T03:31:47;16.20;99.90
11748;DHT22;5931;48.832;9.072;2023-06-26T03:34:12;16.30;99.90
11748;DHT22;5931;48.832;9.072;2023-06-26T03:36:38;16.40;99.90
11748;DHT22;5931;48.832;9.072;2023-06-26T03:39:04;16.40;99.90
11748;DHT22;5931;48.832;9.072;2023-06-26T03:41:30;16.50;99.90
11748;DHT22;5931;48.832;9.072;2023-06-26T03:43:56;16.60;99.90
11748;DHT22;5931;48.832;9.072;2023-06-26T03:46:26;16.60;99.90
11748;DHT22;5931;48.832;9.072;2023-06-26T03:48:52;16.70;99.90
11748;DHT22;5931;48.832;9.072;2023-06-26T03:51:18;16.80;99.90
11748;DHT22;5931;48.832;9.072;2023-06-26T03:53:43;16.80;99.90
11748;DHT22;5931;48.832;9.072;2023-06-26T03:56:09;16.90;99.90
11748;DHT22;5931;48.832;9.072;2023-06-26T03:58:34;17.00;99.90
11748;DHT22;5931;48.832;9.072;2023-06-26T04:01:00;17.20;99.90
11748;DHT22;5931;48.832;9.072;2023-06-26T04:03:26;17.20;99.90
11748;DHT22;5931;48.832;9.072;2023-06-26T04:05:52;17.40;99.90
11748;DHT22;5931;48.832;9.072;2023-06-26T04:08:18;17.50;99.90
11748;DHT22;5931;48.832;9.072;2023-06-26T04:10:45;17.50;99.90
11748;DHT22;5931;48.832;9.072;2023-06-26T04:13:13;17.60;99.90
11748;DHT22;5931;48.832;9.072;2023-06-26T04:15:39;17.70;99.90
11748;DHT22;5931;48.832;9.072;2023-06-26T04:18:05;17.80;99.90
11748;DHT22;5931;48.832;9.072;2023-06-26T04:20:30;17.90;99.90
11748;DHT22;5931;48.832;9.072;2023-06-26T04:22:56;18.00;99.90
11748;DHT22;5931;48.832;9.072;2023-06-26T04:25:22;18.10;99.90
11748;DHT22;5931;48.832;9.072;2023-06-26T04:27:47;18.10;99.90
11748;DHT22;5931;48.832;9.072;2023-06-26T04:30:13;18.20;99.90
11748;DHT22;5931;48.832;9.072;2023-06-26T04:32:39;18.30;99.90
11748;DHT22;5931;48.832;9.072;2023-06-26T04:35:04;18.30;99.90
11748;DHT22;5931;48.832;9.072;2023-06-26T04:37:30;18.40;99.90
11748;DHT22;5931;48.832;9.072;2023-06-26T04:39:56;18.50;99.90
11748;DHT22;5931;48.832;9.072;2023-06-26T04:42:21;18.60;99.90
11748;DHT22;5931;48.832;9.072;2023-06-26T04:44:47;18.60;99.90
11748;DHT22;5931;48.832;9.072;2023-06-26T04:47:13;18.80;99.90
11748;DHT22;5931;48.832;9.072;2023-06-26T04:49:41;18.90;99.90
11748;DHT22;5931;48.832;9.072;2023-06-26T04:52:11;19.00;99.90
11748;DHT22;5931;48.832;9.072;2023-06-26T04:54:38;19.10;99.90
11748;DHT22;5931;48.832;9.072;2023-06-26T04:57:04;19.20;99.90
11748;DHT22;5931;48.832;9.072;2023-06-26T04:59:31;19.30;99.90
11748;DHT22;5931;48.832;9.072;2023-06-26T05:01:57;19.40;99.90
11748;DHT22;5931;48.832;9.072;2023-06-26T05:04:22;19.50;99.90
11748;DHT22;5931;48.832;9.072;2023-06-26T05:06:48;19.70;99.90
11748;DHT22;5931;48.832;9.072;2023-06-26T05:09:14;19.80;99.90
11748;DHT22;5931;48.832;9.072;2023-06-26T05:11:39;19.90;99.90
11748;DHT22;5931;48.832;9.072;2023-06-26T05:14:05;20.00;99.90
11748;DHT22;5931;48.832;9.072;2023-06-26T05:16:33;20.10;99.90
11748;DHT22;5931;48.832;9.072;2023-06-26T05:18:59;20.20;99.90
11748;DHT22;5931;48.832;9.072;2023-06-26T05:21:25;20.40;99.90
11748;DHT22;5931;48.832;9.072;2023-06-26T05:23:52;20.50;99.90
11748;DHT22;5931;48.832;9.072;2023-06-26T05:26:21;20.60;99.90
11748;DHT22;5931;48.832;9.072;2023-06-26T05:28:47;20.80;99.90
11748;DHT22;5931;48.832;9.072;2023-06-26T05:31:15;20.80;99.90
11748;DHT22;5931;48.832;9.072;2023-06-26T05:33:43;21.00;99.90
11748;DHT22;5931;48.832;9.072;2023-06-26T05:36:09;21.10;99.90
11748;DHT22;5931;48.832;9.072;2023-06-26T05:38:35;21.20;99.90
11748;DHT22;5931;48.832;9.072;2023-06-26T05:41:01;21.30;99.90
11748;DHT22;5931;48.832;9.072;2023-06-26T05:43:27;21.40;99.90
11748;DHT22;5931;48.832;9.072;2023-06-26T05:45:52;21.60;99.90
11748;DHT22;5931;48.832;9.072;2023-06-26T05:48:18;21.70;99.90
11748;DHT22;5931;48.832;9.072;2023-06-26T05:50:44;21.80;99.90
11748;DHT22;5931;48.832;9.072;2023-06-26T05:53:10;21.80;99.90
11748;DHT22;5931;48.832;9.072;2023-06-26T05:55:36;22.00;99.90
11748;DHT22;5931;48.832;9.072;2023-06-26T05:58:02;22.10;99.90
11748;DHT22;5931;48.832;9.072;2023-06-26T06:00:29;22.10;99.90
11748;DHT22;5931;48.832;9.072;2023-06-26T06:02:55;22.20;99.90
11748;DHT22;5931;48.832;9.072;2023-06-26T06:05:21;22.30;99.90
11748;DHT22;5931;48.832;9.072;2023-06-26T06:07:47;22.40;99.90
11748;DHT22;5931;48.832;9.072;2023-06-26T06:10:13;22.50;99.90
11748;DHT22;5931;48.832;9.072;2023-06-26T06:12:39;22.60;99.90
11748;DHT22;5931;48.832;9.072;2023-06-26T06:15:05;22.70;99.90
11748;DHT22;5931;48.832;9.072;2023-06-26T06:17:31;22.80;99.90
11748;DHT22;5931;48.832;9.072;2023-06-26T06:19:57;22.90;99.90
11748;DHT22;5931;48.832;9.072;2023-06-26T06:22:22;23.00;99.90
11748;DHT22;5931;48.832;9.072;2023-06-26T06:24:51;23.20;99.90
11748;DHT22;5931;48.832;9.072;2023-06-26T06:27:17;23.30;99.90
11748;DHT22;5931;48.832;9.072;2023-06-26T06:29:43;23.50;99.90
11748;DHT22;5931;48.832;9.072;2023-06-26T06:32:08;23.50;99.90
11748;DHT22;5931;48.832;9.072;2023-06-26T06:34:34;23.60;99.90
11748;DHT22;5931;48.832;9.072;2023-06-26T06:37:00;23.70;99.90
11748;DHT22;5931;48.832;9.072;2023-06-26T06:39:25;23.80;99.90
11748;DHT22;5931;48.832;9.072;2023-06-26T06:41:51;23.90;99.90
11748;DHT22;5931;48.832;9.072;2023-06-26T06:44:17;24.00;99.90
11748;DHT22;5931;48.832;9.072;2023-06-26T06:46:42;24.20;99.90
11748;DHT22;5931;48.832;9.072;2023-06-26T06:49:08;24.40;99.90
11748;DHT22;5931;48.832;9.072;2023-06-26T06:51:34;24.50;99.90
11748;DHT22;5931;48.832;9.072;2023-06-26T06:54:00;24.60;99.90
11748;DHT22;5931;48.832;9.072;2023-06-26T06:56:26;24.70;99.90
11748;DHT22;5931;48.832;9.072;2023-06-26T06:58:52;24.70;99.90
11748;DHT22;5931;48.832;9.072;2023-06-26T07:01:17;24.90;99.90
11748;DHT22;5931;48.832;9.072;2023-06-26T07:03:43;25.10;99.90
11748;DHT22;5931;48.832;9.072;2023-06-26T07:06:08;25.30;99.90
11748;DHT22;5931;48.832;9.072;2023-06-26T07:08:34;25.40;99.90
11748;DHT22;5931;48.832;9.072;2023-06-26T07:11:00;25.60;99.90
11748;DHT22;5931;48.832;9.072;2023-06-26T07:13:27;25.80;99.90
11748;DHT22;5931;48.832;9.072;2023-06-26T07:15:52;26.00;99.90
11748;DHT22;5931;48.832;9.072;2023-06-26T07:18:18;26.10;99.90
11748;DHT22;5931;48.832;9.072;2023-06-26T07:20:44;26.20;99.90
11748;DHT22;5931;48.832;9.072;2023-06-26T07:23:09;26.40;99.90
11748;DHT22;5931;48.832;9.072;2023-06-26T07:25:35;26.40;99.90
11748;DHT22;5931;48.832;9.072;2023-06-26T07:28:01;26.60;99.90
11748;DHT22;5931;48.832;9.072;2023-06-26T07:30:27;26.70;99.90
11748;DHT22;5931;48.832;9.072;2023-06-26T07:32:53;26.80;99.90
11748;DHT22;5931;48.832;9.072;2023-06-26T07:35:18;26.80;99.90
11748;DHT22;5931;48.832;9.072;2023-06-26T07:37:44;27.00;99.90
11748;DHT22;5931;48.832;9.072;2023-06-26T07:40:10;27.00;99.90
11748;DHT22;5931;48.832;9.072;2023-06-26T07:42:36;27.20;99.90
11748;DHT22;5931;48.832;9.072;2023-06-26T07:45:02;27.20;99.90
11748;DHT22;5931;48.832;9.072;2023-06-26T07:47:30;27.30;99.90
11748;DHT22;5931;48.832;9.072;2023-06-26T07:49:56;27.40;99.90
11748;DHT22;5931;48.832;9.072;2023-06-26T07:52:21;27.40;99.90
11748;DHT22;5931;48.832;9.072;2023-06-26T07:54:47;27.50;99.90
11748;DHT22;5931;48.832;9.072;2023-06-26T07:57:13;27.50;99.90
11748;DHT22;5931;48.832;9.072;2023-06-26T07:59:38;27.70;99.90
11748;DHT22;5931;48.832;9.072;2023-06-26T08:02:05;27.90;99.60
11748;DHT22;5931;48.832;9.072;2023-06-26T08:04:31;28.00;99.50
11748;DHT22;5931;48.832;9.072;2023-06-26T08:07:00;28.00;99.30
11748;DHT22;5931;48.832;9.072;2023-06-26T08:09:28;28.00;99.40
11748;DHT22;5931;48.832;9.072;2023-06-26T08:11:54;28.10;99.20
11748;DHT22;5931;48.832;9.072;2023-06-26T08:14:20;28.10;98.40
11748;DHT22;5931;48.832;9.072;2023-06-26T08:16:46;28.30;98.50
11748;DHT22;5931;48.832;9.072;2023-06-26T08:19:13;28.40;97.20
11748;DHT22;5931;48.832;9.072;2023-06-26T08:21:43;28.50;96.50
11748;DHT22;5931;48.832;9.072;2023-06-26T08:24:09;28.50;96.60
11748;DHT22;5931;48.832;9.072;2023-06-26T08:26:35;28.60;96.80
11748;DHT22;5931;48.832;9.072;2023-06-26T08:29:01;28.60;96.00
11748;DHT22;5931;48.832;9.072;2023-06-26T08:31:36;28.60;96.00
11748;DHT22;5931;48.832;9.072;2023-06-26T08:34:03;28.60;95.40
11748;DHT22;5931;48.832;9.072;2023-06-26T08:36:29;28.70;95.10
11748;DHT22;5931;48.832;9.072;2023-06-26T08:38:54;28.80;95.40
11748;DHT22;5931;48.832;9.072;2023-06-26T08:41:20;29.00;95.20
11748;DHT22;5931;48.832;9.072;2023-06-26T08:43:46;29.00;95.00
11748;DHT22;5931;48.832;9.072;2023-06-26T08:46:12;29.10;94.50
11748;DHT22;5931;48.832;9.072;2023-06-26T08:48:37;29.10;94.30
11748;DHT22;5931;48.832;9.072;2023-06-26T08:51:13;29.10;93.70
11748;DHT22;5931;48.832;9.072;2023-06-26T08:53:56;29.20;93.70
11748;DHT22;5931;48.832;9.072;2023-06-26T08:56:22;29.10;93.70
11748;DHT22;5931;48.832;9.072;2023-06-26T08:58:48;29.30;93.80
11748;DHT22;5931;48.832;9.072;2023-06-26T09:01:14;29.20;93.50
11748;DHT22;5931;48.832;9.072;2023-06-26T09:03:40;29.30;93.10
11748;DHT22;5931;48.832;9.072;2023-06-26T09:06:09;29.40;93.30
11748;DHT22;5931;48.832;9.072;2023-06-26T09:08:35;29.40;93.30
11748;DHT22;5931;48.832;9.072;2023-06-26T09:11:00;29.40;93.10
11748;DHT22;5931;48.832;9.072;2023-06-26T09:13:29;29.50;93.40
11748;DHT22;5931;48.832;9.072;2023-06-26T09:15:55;29.70;93.60
11748;DHT22;5931;48.832;9.072;2023-06-26T09:18:21;29.80;93.10
11748;DHT22;5931;48.832;9.072;2023-06-26T09:20:48;29.90;92.50
11748;DHT22;5931;48.832;9.072;2023-06-26T09:23:14;30.00;92.70
11748;DHT22;5931;48.832;9.072;2023-06-26T09:25:40;30.00;92.60
11748;DHT22;5931;48.832;9.072;2023-06-26T09:28:08;29.90;92.00
11748;DHT22;5931;48.832;9.072;2023-06-26T09:30:34;29.90;92.40
11748;DHT22;5931;48.832;9.072;2023-06-26T09:33:19;29.90;92.20
11748;DHT22;5931;48.832;9.072;2023-06-26T09:35:46;29.90;92.40
11748;DHT22;5931;48.832;9.072;2023-06-26T09:38:12;29.90;92.10
11748;DHT22;5931;48.832;9.072;2023-06-26T09:40:39;29.90;91.30
11748;DHT22;5931;48.832;9.072;2023-06-26T09:43:06;30.10;91.90
11748;DHT22;5931;48.832;9.072;2023-06-26T09:45:33;30.20;91.80
11748;DHT22;5931;48.832;9.072;2023-06-26T09:48:02;30.50;91.70
11748;DHT22;5931;48.832;9.072;2023-06-26T09:50:29;30.50;92.20
11748;DHT22;5931;48.832;9.072;2023-06-26T09:52:55;30.70;91.60
11748;DHT22;5931;48.832;9.072;2023-06-26T09:55:21;30.50;90.90
11748;DHT22;5931;48.832;9.072;2023-06-26T09:57:49;30.60;91.50
11748;DHT22;5931;48.832;9.072;2023-06-26T10:00:15;30.60;91.00
11748;DHT22;5931;48.832;9.072;2023-06-26T10:02:41;30.70;91.60
11748;DHT22;5931;48.832;9.072;2023-06-26T10:05:07;30.70;91.60
11748;DHT22;5931;48.832;9.072;2023-06-26T10:07:33;30.70;91.60
11748;DHT22;5931;48.832;9.072;2023-06-26T10:10:00;30.70;91.60
11748;DHT22;5931;48.832;9.072;2023-06-26T10:12:29;30.50;91.50
11748;DHT22;5931;48.832;9.072;2023-06-26T10:14:57;30.50;91.90
11748;DHT22;5931;48.832;9.072;2023-06-26T10:17:26;30.40;92.30
11748;DHT22;5931;48.832;9.072;2023-06-26T10:19:53;30.50;92.80
11748;DHT22;5931;48.832;9.072;2023-06-26T10:22:24;30.70;92.90
11748;DHT22;5931;48.832;9.072;2023-06-26T10:24:51;30.70;93.50
11748;DHT22;5931;48.832;9.072;2023-06-26T10:27:19;30.30;93.20
11748;DHT22;5931;48.832;9.072;2023-06-26T10:29:54;29.90;93.70
11748;DHT22;5931;48.832;9.072;2023-06-26T10:32:21;29.90;93.90
11748;DHT22;5931;48.832;9.072;2023-06-26T10:34:49;29.60;94.00
11748;DHT22;5931;48.832;9.072;2023-06-26T10:37:15;29.70;94.20
11748;DHT22;5931;48.832;9.072;2023-06-26T10:39:51;30.10;93.50
11748;DHT22;5931;48.832;9.072;2023-06-26T10:42:28;30.00;92.90
11748;DHT22;5931;48.832;9.072;2023-06-26T10:45:18;29.80;92.90
11748;DHT22;5931;48.832;9.072;2023-06-26T10:47:48;30.00;93.40
11748;DHT22;5931;48.832;9.072;2023-06-26T10:50:23;30.40;92.90
11748;DHT22;5931;48.832;9.072;2023-06-26T10:55:56;30.20;92.80
11748;DHT22;5931;48.832;9.072;2023-06-26T10:58:33;30.40;93.00
11748;DHT22;5931;48.832;9.072;2023-06-26T11:04:04;30.40;92.80
11748;DHT22;5931;48.832;9.072;2023-06-26T11:06:31;30.90;92.90
11748;DHT22;5931;48.832;9.072;2023-06-26T11:09:11;30.50;92.70
11748;DHT22;5931;48.832;9.072;2023-06-26T11:14:23;30.10;94.00
11748;DHT22;5931;48.832;9.072;2023-06-26T11:16:49;30.30;94.20
11748;DHT22;5931;48.832;9.072;2023-06-26T11:19:17;30.20;94.00
11748;DHT22;5931;48.832;9.072;2023-06-26T11:21:43;30.20;93.90
11748;DHT22;5931;48.832;9.072;2023-06-26T11:24:10;30.30;94.80
11748;DHT22;5931;48.832;9.072;2023-06-26T11:26:44;30.20;95.00
11748;DHT22;5931;48.832;9.072;2023-06-26T11:29:10;30.40;94.70
11748;DHT22;5931;48.832;9.072;2023-06-26T11:31:38;30.20;95.00
11748;DHT22;5931;48.832;9.072;2023-06-26T11:34:06;30.20;95.10
11748;DHT22;5931;48.832;9.072;2023-06-26T11:36:39;30.30;94.90
11748;DHT22;5931;48.832;9.072;2023-06-26T11:39:07;30.30;94.50
11748;DHT22;5931;48.832;9.072;2023-06-26T11:41:38;29.90;95.20
11748;DHT22;5931;48.832;9.072;2023-06-26T11:44:05;29.60;95.60
11748;DHT22;5931;48.832;9.072;2023-06-26T11:46:32;29.50;95.80
11748;DHT22;5931;48.832;9.072;2023-06-26T11:48:59;29.50;96.30
11748;DHT22;5931;48.832;9.072;2023-06-26T11:51:27;29.40;96.70
11748;DHT22;5931;48.832;9.072;2023-06-26T11:53:53;29.50;97.00
11748;DHT22;5931;48.832;9.072;2023-06-26T11:56:19;29.50;96.60
11748;DHT22;5931;48.832;9.072;2023-06-26T11:59:14;29.50;96.90
11748;DHT22;5931;48.832;9.072;2023-06-26T12:01:43;29.40;96.60
11748;DHT22;5931;48.832;9.072;2023-06-26T12:04:15;29.20;96.80
11748;DHT22;5931;48.832;9.072;2023-06-26T12:06:45;29.30;96.80
11748;DHT22;5931;48.832;9.072;2023-06-26T12:09:12;29.30;97.00
11748;DHT22;5931;48.832;9.072;2023-06-26T12:11:41;29.20;97.60
11748;DHT22;5931;48.832;9.072;2023-06-26T12:14:08;29.50;97.30
11748;DHT22;5931;48.832;9.072;2023-06-26T12:16:36;29.40;97.20
11748;DHT22;5931;48.832;9.072;2023-06-26T12:19:05;29.40;97.20
11748;DHT22;5931;48.832;9.072;2023-06-26T12:24:03;29.40;97.50
11748;DHT22;5931;48.832;9.072;2023-06-26T12:26:30;29.10;97.90
11748;DHT22;5931;48.832;9.072;2023-06-26T12:29:07;29.10;97.50
11748;DHT22;5931;48.832;9.072;2023-06-26T12:31:33;29.30;97.60
11748;DHT22;5931;48.832;9.072;2023-06-26T12:34:00;29.10;97.40
11748;DHT22;5931;48.832;9.072;2023-06-26T12:36:26;29.40;97.80
11748;DHT22;5931;48.832;9.072;2023-06-26T12:38:53;29.70;97.40
11748;DHT22;5931;48.832;9.072;2023-06-26T12:41:19;29.90;96.80
11748;DHT22;5931;48.832;9.072;2023-06-26T12:43:46;30.00;96.70
11748;DHT22;5931;48.832;9.072;2023-06-26T12:46:12;29.70;96.00
11748;DHT22;5931;48.832;9.072;2023-06-26T12:48:39;29.70;96.40
11748;DHT22;5931;48.832;9.072;2023-06-26T12:51:17;29.50;96.40
11748;DHT22;5931;48.832;9.072;2023-06-26T12:53:43;29.60;96.80
11748;DHT22;5931;48.832;9.072;2023-06-26T12:56:10;29.80;96.80
11748;DHT22;5931;48.832;9.072;2023-06-26T12:58:37;30.00;96.20
11748;DHT22;5931;48.832;9.072;2023-06-26T13:01:04;30.30;95.60
11748;DHT22;5931;48.832;9.072;2023-06-26T13:03:30;30.00;95.60
11748;DHT22;5931;48.832;9.072;2023-06-26T13:05:55;30.10;95.00
11748;DHT22;5931;48.832;9.072;2023-06-26T13:08:21;29.80;94.80
11748;DHT22;5931;48.832;9.072;2023-06-26T13:10:47;29.70;94.90
11748;DHT22;5931;48.832;9.072;2023-06-26T13:13:13;29.80;94.60
11748;DHT22;5931;48.832;9.072;2023-06-26T13:15:38;29.80;94.70
11748;DHT22;5931;48.832;9.072;2023-06-26T13:18:04;29.90;94.50
11748;DHT22;5931;48.832;9.072;2023-06-26T13:20:29;30.10;94.10
11748;DHT22;5931;48.832;9.072;2023-06-26T13:22:55;30.10;93.30
11748;DHT22;5931;48.832;9.072;2023-06-26T13:25:22;30.10;93.80
11748;DHT22;5931;48.832;9.072;2023-06-26T13:27:47;29.90;93.40
11748;DHT22;5931;48.832;9.072;2023-06-26T13:30:14;29.90;92.60
11748;DHT22;5931;48.832;9.072;2023-06-26T13:32:40;30.30;92.70
11748;DHT22;5931;48.832;9.072;2023-06-26T13:35:06;30.20;92.60
11748;DHT22;5931;48.832;9.072;2023-06-26T13:37:32;30.40;91.00
11748;DHT22;5931;48.832;9.072;2023-06-26T13:40:00;30.60;89.90
11748;DHT22;5931;48.832;9.072;2023-06-26T13:42:27;30.80;90.60
11748;DHT22;5931;48.832;9.072;2023-06-26T13:44:53;31.40;90.50
11748;DHT22;5931;48.832;9.072;2023-06-26T13:47:19;31.60;89.00
11748;DHT22;5931;48.832;9.072;2023-06-26T13:49:44;32.20;88.10
11748;DHT22;5931;48.832;9.072;2023-06-26T13:52:10;32.40;86.70
11748;DHT22;5931;48.832;9.072;2023-06-26T13:54:36;32.70;86.30
11748;DHT22;5931;48.832;9.072;2023-06-26T13:57:06;33.00;84.20
11748;DHT22;5931;48.832;9.072;2023-06-26T13:59:33;33.10;83.10
11748;DHT22;5931;48.832;9.072;2023-06-26T14:01:59;33.40;82.80
11748;DHT22;5931;48.832;9.072;2023-06-26T14:04:25;32.80;81.30
11748;DHT22;5931;48.832;9.072;2023-06-26T14:06:51;32.30;82.50
11748;DHT22;5931;48.832;9.072;2023-06-26T14:09:17;32.10;80.80
11748;DHT22;5931;48.832;9.072;2023-06-26T14:11:43;32.50;81.80
11748;DHT22;5931;48.832;9.072;2023-06-26T14:14:10;32.10;81.50
11748;DHT22;5931;48.832;9.072;2023-06-26T14:16:35;32.30;81.30
11748;DHT22;5931;48.832;9.072;2023-06-26T14:19:01;32.50;80.70
11748;DHT22;5931;48.832;9.072;2023-06-26T14:21:28;33.10;79.60
11748;DHT22;5931;48.832;9.072;2023-06-26T14:23:55;32.70;77.40
11748;DHT22;5931;48.832;9.072;2023-06-26T14:26:20;32.40;79.20
11748;DHT22;5931;48.832;9.072;2023-06-26T14:28:46;32.30;80.40
11748;DHT22;5931;48.832;9.072;2023-06-26T14:31:12;32.60;80.20
11748;DHT22;5931;48.832;9.072;2023-06-26T14:33:38;32.80;80.10
11748;DHT22;5931;48.832;9.072;2023-06-26T14:36:03;32.50;80.40
11748;DHT22;5931;48.832;9.072;2023-06-26T14:38:29;32.40;80.20
11748;DHT22;5931;48.832;9.072;2023-06-26T14:40:55;32.40;80.40
11748;DHT22;5931;48.832;9.072;2023-06-26T14:43:20;32.40;80.90
11748;DHT22;5931;48.832;9.072;2023-06-26T14:45:46;31.40;82.80
11748;DHT22;5931;48.832;9.072;2023-06-26T14:48:12;30.60;84.30
11748;DHT22;5931;48.832;9.072;2023-06-26T14:50:38;30.90;85.20
11748;DHT22;5931;48.832;9.072;2023-06-26T14:53:04;30.70;84.60
11748;DHT22;5931;48.832;9.072;2023-06-26T14:55:29;30.30;85.30
11748;DHT22;5931;48.832;9.072;2023-06-26T14:57:55;30.30;86.00
11748;DHT22;5931;48.832;9.072;2023-06-26T15:00:21;30.60;86.60
11748;DHT22;5931;48.832;9.072;2023-06-26T15:02:47;30.30;85.90
11748;DHT22;5931;48.832;9.072;2023-06-26T15:05:13;29.80;86.10
11748;DHT22;5931;48.832;9.072;2023-06-26T15:07:39;29.40;87.00
11748;DHT22;5931;48.832;9.072;2023-06-26T15:10:05;29.40;87.00
11748;DHT22;5931;48.832;9.072;2023-06-26T15:12:32;29.10;86.10
11748;DHT22;5931;48.832;9.072;2023-06-26T15:14:58;28.80;87.20
11748;DHT22;5931;48.832;9.072;2023-06-26T15:17:23;28.70;88.20
11748;DHT22;5931;48.832;9.072;2023-06-26T15:19:49;28.80;88.70
11748;DHT22;5931;48.832;9.072;2023-06-26T15:22:17;28.90;89.00
11748;DHT22;5931;48.832;9.072;2023-06-26T15:24:43;29.00;88.10
11748;DHT22;5931;48.832;9.072;2023-06-26T15:27:09;28.60;87.20
11748;DHT22;5931;48.832;9.072;2023-06-26T15:29:35;28.60;89.20
11748;DHT22;5931;48.832;9.072;2023-06-26T15:32:01;28.90;88.20
11748;DHT22;5931;48.832;9.072;2023-06-26T15:34:26;28.90;87.90
11748;DHT22;5931;48.832;9.072;2023-06-26T15:36:52;29.00;88.00
11748;DHT22;5931;48.832;9.072;2023-06-26T15:39:18;28.80;87.10
11748;DHT22;5931;48.832;9.072;2023-06-26T15:41:44;28.60;88.30
11748;DHT22;5931;48.832;9.072;2023-06-26T15:44:10;28.50;88.30
11748;DHT22;5931;48.832;9.072;2023-06-26T15:46:36;28.30;88.70
11748;DHT22;5931;48.832;9.072;2023-06-26T15:49:02;28.10;89.50
11748;DHT22;5931;48.832;9.072;2023-06-26T15:51:28;27.90;89.50
11748;DHT22;5931;48.832;9.072;2023-06-26T15:53:53;28.00;89.50
11748;DHT22;5931;48.832;9.072;2023-06-26T15:56:19;27.90;89.30